sensor_id;sensor_type;location;lat;lon;timestamp;P1;durP1;ratioP1;P2;durP2;ratioP2
68976;SDS011;56029;52.568;13.588;2023-10-13T00:01:22;11.68;;;4.78;;
68976;SDS011;56029;52.568;13.588;2023-10-13T00:03:48;10.88;;;3.80;;
68976;SDS011;56029;52.568;13.588;2023-10-13T00:06:13;9.40;;;3.67;;
68976;SDS011;56029;52.568;13.588;2023-10-13T00:08:39;14.43;;;4.20;;
68976;SDS011;56029;52.568;13.588;2023-10-13T00:11:05;10.60;;;4.20;;
68976;SDS011;56029;52.568;13.588;2023-10-13T00:13:31;11.82;;;4.40;;
68976;SDS011;56029;52.568;13.588;2023-10-13T00:15:57;10.20;;;4.10;;
68976;SDS011;56029;52.568;13.588;2023-10-13T00:18:26;13.00;;;3.97;;
68976;SDS011;56029;52.568;13.588;2023-10-13T00:20:53;11.27;;;4.15;;
68976;SDS011;56029;52.568;13.588;2023-10-13T00:23:19;10.33;;;4.13;;
68976;SDS011;56029;52.568;13.588;2023-10-13T00:25:44;10.57;;;4.40;;
68976;SDS011;56029;52.568;13.588;2023-10-13T00:28:10;10.63;;;3.90;;
68976;SDS011;56029;52.568;13.588;2023-10-13T00:30:35;12.00;;;4.30;;
68976;SDS011;56029;52.568;13.588;2023-10-13T00:33:01;10.02;;;3.95;;
68976;SDS011;56029;52.568;13.588;2023-10-13T00:35:27;11.90;;;4.00;;
68976;SDS011;56029;52.568;13.588;2023-10-13T00:37:54;9.32;;;3.78;;
68976;SDS011;56029;52.568;13.588;2023-10-13T00:40:22;8.38;;;3.75;;
68976;SDS011;56029;52.568;13.588;2023-10-13T00:42:48;9.95;;;3.70;;
68976;SDS011;56029;52.568;13.588;2023-10-13T00:45:14;9.90;;;3.47;;
68976;SDS011;56029;52.568;13.588;2023-10-13T00:47:39;9.23;;;3.70;;
68976;SDS011;56029;52.568;13.588;2023-10-13T00:50:08;8.25;;;3.55;;
68976;SDS011;56029;52.568;13.588;2023-10-13T00:52:34;10.18;;;3.70;;
68976;SDS011;56029;52.568;13.588;2023-10-13T00:55:01;10.73;;;4.23;;
68976;SDS011;56029;52.568;13.588;2023-10-13T00:57:27;9.18;;;3.78;;
68976;SDS011;56029;52.568;13.588;2023-10-13T00:59:53;9.73;;;3.63;;
68976;SDS011;56029;52.568;13.588;2023-10-13T01:02:20;9.43;;;3.70;;
68976;SDS011;56029;52.568;13.588;2023-10-13T01:04:46;12.47;;;4.20;;
68976;SDS011;56029;52.568;13.588;2023-10-13T01:07:11;9.70;;;3.87;;
68976;SDS011;56029;52.568;13.588;2023-10-13T01:09:40;9.50;;;4.00;;
68976;SDS011;56029;52.568;13.588;2023-10-13T01:12:06;10.18;;;4.20;;
68976;SDS011;56029;52.568;13.588;2023-10-13T01:14:32;9.63;;;3.80;;
68976;SDS011;56029;52.568;13.588;2023-10-13T01:17:00;9.75;;;3.90;;
68976;SDS011;56029;52.568;13.588;2023-10-13T01:19:25;9.10;;;3.90;;
68976;SDS011;56029;52.568;13.588;2023-10-13T01:21:51;7.30;;;3.50;;
68976;SDS011;56029;52.568;13.588;2023-10-13T01:24:17;10.32;;;3.38;;
68976;SDS011;56029;52.568;13.588;2023-10-13T01:26:45;8.82;;;3.40;;
68976;SDS011;56029;52.568;13.588;2023-10-13T01:29:11;6.97;;;2.80;;
68976;SDS011;56029;52.568;13.588;2023-10-13T01:31:39;8.00;;;3.20;;
68976;SDS011;56029;52.568;13.588;2023-10-13T01:34:08;6.93;;;2.80;;
68976;SDS011;56029;52.568;13.588;2023-10-13T01:36:33;7.97;;;2.90;;
68976;SDS011;56029;52.568;13.588;2023-10-13T01:38:59;6.38;;;2.72;;
68976;SDS011;56029;52.568;13.588;2023-10-13T01:41:24;5.73;;;2.40;;
68976;SDS011;56029;52.568;13.588;2023-10-13T01:43:50;6.20;;;2.47;;
68976;SDS011;56029;52.568;13.588;2023-10-13T01:46:18;7.77;;;2.50;;
68976;SDS011;56029;52.568;13.588;2023-10-13T01:48:43;9.52;;;2.40;;
68976;SDS011;56029;52.568;13.588;2023-10-13T01:51:09;8.90;;;2.70;;
68976;SDS011;56029;52.568;13.588;2023-10-13T01:53:35;7.32;;;2.83;;
68976;SDS011;56029;52.568;13.588;2023-10-13T01:56:02;7.68;;;2.40;;
68976;SDS011;56029;52.568;13.588;2023-10-13T01:58:28;5.97;;;2.30;;
68976;SDS011;56029;52.568;13.588;2023-10-13T02:00:54;7.45;;;2.58;;
68976;SDS011;56029;52.568;13.588;2023-10-13T02:03:19;8.23;;;2.93;;
68976;SDS011;56029;52.568;13.588;2023-10-13T02:05:48;6.10;;;2.50;;
68976;SDS011;56029;52.568;13.588;2023-10-13T02:08:15;7.43;;;2.50;;
68976;SDS011;56029;52.568;13.588;2023-10-13T02:10:45;8.48;;;2.67;;
68976;SDS011;56029;52.568;13.588;2023-10-13T02:13:14;7.63;;;2.80;;
68976;SDS011;56029;52.568;13.588;2023-10-13T02:15:40;11.05;;;3.08;;
68976;SDS011;56029;52.568;13.588;2023-10-13T02:18:06;10.37;;;3.40;;
68976;SDS011;56029;52.568;13.588;2023-10-13T02:20:31;13.07;;;3.17;;
68976;SDS011;56029;52.568;13.588;2023-10-13T02:22:57;12.10;;;3.45;;
68976;SDS011;56029;52.568;13.588;2023-10-13T02:25:25;9.18;;;3.50;;
68976;SDS011;56029;52.568;13.588;2023-10-13T02:27:53;12.77;;;3.67;;
68976;SDS011;56029;52.568;13.588;2023-10-13T02:30:18;14.03;;;3.57;;
68976;SDS011;56029;52.568;13.588;2023-10-13T02:32:44;10.97;;;4.00;;
68976;SDS011;56029;52.568;13.588;2023-10-13T02:35:09;12.20;;;3.97;;
68976;SDS011;56029;52.568;13.588;2023-10-13T02:37:35;13.70;;;4.18;;
68976;SDS011;56029;52.568;13.588;2023-10-13T02:40:04;13.60;;;4.10;;
68976;SDS011;56029;52.568;13.588;2023-10-13T02:42:29;13.55;;;4.78;;
68976;SDS011;56029;52.568;13.588;2023-10-13T02:44:55;14.93;;;4.37;;
68976;SDS011;56029;52.568;13.588;2023-10-13T02:47:21;12.68;;;4.38;;
68976;SDS011;56029;52.568;13.588;2023-10-13T02:49:46;15.33;;;4.20;;
68976;SDS011;56029;52.568;13.588;2023-10-13T02:52:12;12.87;;;4.33;;
68976;SDS011;56029;52.568;13.588;2023-10-13T02:54:37;16.95;;;4.50;;
68976;SDS011;56029;52.568;13.588;2023-10-13T02:57:03;16.23;;;4.43;;
68976;SDS011;56029;52.568;13.588;2023-10-13T02:59:31;14.90;;;4.20;;
68976;SDS011;56029;52.568;13.588;2023-10-13T03:02:01;15.57;;;4.95;;
68976;SDS011;56029;52.568;13.588;2023-10-13T03:04:26;14.85;;;4.80;;
68976;SDS011;56029;52.568;13.588;2023-10-13T03:06:52;14.80;;;5.07;;
68976;SDS011;56029;52.568;13.588;2023-10-13T03:09:17;12.57;;;5.00;;
68976;SDS011;56029;52.568;13.588;2023-10-13T03:11:44;15.80;;;4.77;;
68976;SDS011;56029;52.568;13.588;2023-10-13T03:14:10;14.98;;;5.18;;
68976;SDS011;56029;52.568;13.588;2023-10-13T03:16:38;12.98;;;5.45;;
68976;SDS011;56029;52.568;13.588;2023-10-13T03:19:04;15.23;;;5.23;;
68976;SDS011;56029;52.568;13.588;2023-10-13T03:21:29;15.57;;;5.33;;
68976;SDS011;56029;52.568;13.588;2023-10-13T03:23:59;12.80;;;5.07;;
68976;SDS011;56029;52.568;13.588;2023-10-13T03:26:25;15.20;;;5.80;;
68976;SDS011;56029;52.568;13.588;2023-10-13T03:28:52;14.75;;;6.15;;
68976;SDS011;56029;52.568;13.588;2023-10-13T03:31:19;17.27;;;5.97;;
68976;SDS011;56029;52.568;13.588;2023-10-13T03:33:47;16.10;;;6.23;;
68976;SDS011;56029;52.568;13.588;2023-10-13T03:36:13;16.55;;;6.00;;
68976;SDS011;56029;52.568;13.588;2023-10-13T03:38:39;14.25;;;6.03;;
68976;SDS011;56029;52.568;13.588;2023-10-13T03:41:05;16.47;;;6.77;;
68976;SDS011;56029;52.568;13.588;2023-10-13T03:43:30;14.67;;;6.40;;
68976;SDS011;56029;52.568;13.588;2023-10-13T03:45:56;16.13;;;6.37;;
68976;SDS011;56029;52.568;13.588;2023-10-13T03:48:24;14.80;;;6.30;;
68976;SDS011;56029;52.568;13.588;2023-10-13T03:50:50;15.15;;;6.80;;
68976;SDS011;56029;52.568;13.588;2023-10-13T03:53:17;15.88;;;7.18;;
68976;SDS011;56029;52.568;13.588;2023-10-13T03:55:42;16.47;;;6.87;;
68976;SDS011;56029;52.568;13.588;2023-10-13T03:58:08;16.73;;;7.17;;
68976;SDS011;56029;52.568;13.588;2023-10-13T04:00:33;15.30;;;7.25;;
68976;SDS011;56029;52.568;13.588;2023-10-13T04:03:02;16.00;;;7.20;;
68976;SDS011;56029;52.568;13.588;2023-10-13T04:05:28;17.50;;;7.33;;
68976;SDS011;56029;52.568;13.588;2023-10-13T04:07:54;18.42;;;7.30;;
68976;SDS011;56029;52.568;13.588;2023-10-13T04:10:19;19.02;;;7.88;;
68976;SDS011;56029;52.568;13.588;2023-10-13T04:12:44;17.33;;;7.60;;
68976;SDS011;56029;52.568;13.588;2023-10-13T04:15:10;17.20;;;7.80;;
68976;SDS011;56029;52.568;13.588;2023-10-13T04:17:36;18.75;;;8.00;;
68976;SDS011;56029;52.568;13.588;2023-10-13T04:20:01;17.30;;;8.03;;
68976;SDS011;56029;52.568;13.588;2023-10-13T04:22:27;20.47;;;8.10;;
68976;SDS011;56029;52.568;13.588;2023-10-13T04:24:53;18.05;;;8.10;;
68976;SDS011;56029;52.568;13.588;2023-10-13T04:27:18;20.87;;;9.37;;
68976;SDS011;56029;52.568;13.588;2023-10-13T04:29:44;20.52;;;8.30;;
68976;SDS011;56029;52.568;13.588;2023-10-13T04:32:09;23.80;;;9.03;;
68976;SDS011;56029;52.568;13.588;2023-10-13T04:34:35;21.70;;;8.73;;
68976;SDS011;56029;52.568;13.588;2023-10-13T04:37:00;20.25;;;9.45;;
68976;SDS011;56029;52.568;13.588;2023-10-13T04:39:26;21.20;;;8.63;;
68976;SDS011;56029;52.568;13.588;2023-10-13T04:41:51;20.20;;;9.40;;
68976;SDS011;56029;52.568;13.588;2023-10-13T04:44:17;20.88;;;8.90;;
68976;SDS011;56029;52.568;13.588;2023-10-13T04:46:43;22.48;;;9.68;;
68976;SDS011;56029;52.568;13.588;2023-10-13T04:49:08;22.57;;;9.30;;
68976;SDS011;56029;52.568;13.588;2023-10-13T04:51:34;20.43;;;9.40;;
68976;SDS011;56029;52.568;13.588;2023-10-13T04:54:00;19.42;;;9.50;;
68976;SDS011;56029;52.568;13.588;2023-10-13T04:56:25;23.63;;;10.10;;
68976;SDS011;56029;52.568;13.588;2023-10-13T04:58:51;22.15;;;9.80;;
68976;SDS011;56029;52.568;13.588;2023-10-13T05:01:19;22.93;;;10.33;;
68976;SDS011;56029;52.568;13.588;2023-10-13T05:03:48;21.35;;;9.98;;
68976;SDS011;56029;52.568;13.588;2023-10-13T05:06:14;22.77;;;10.43;;
68976;SDS011;56029;52.568;13.588;2023-10-13T05:08:40;24.03;;;10.77;;
68976;SDS011;56029;52.568;13.588;2023-10-13T05:11:05;24.90;;;11.73;;
68976;SDS011;56029;52.568;13.588;2023-10-13T05:13:31;22.83;;;10.68;;
68976;SDS011;56029;52.568;13.588;2023-10-13T05:15:56;22.77;;;10.50;;
68976;SDS011;56029;52.568;13.588;2023-10-13T05:18:22;22.50;;;11.13;;
68976;SDS011;56029;52.568;13.588;2023-10-13T05:20:47;19.93;;;10.47;;
68976;SDS011;56029;52.568;13.588;2023-10-13T05:23:13;23.20;;;10.80;;
68976;SDS011;56029;52.568;13.588;2023-10-13T05:25:39;24.07;;;11.43;;
68976;SDS011;56029;52.568;13.588;2023-10-13T05:28:04;23.95;;;11.60;;
68976;SDS011;56029;52.568;13.588;2023-10-13T05:30:30;24.43;;;12.30;;
68976;SDS011;56029;52.568;13.588;2023-10-13T05:32:57;23.52;;;12.32;;
68976;SDS011;56029;52.568;13.588;2023-10-13T05:35:22;25.63;;;12.40;;
68976;SDS011;56029;52.568;13.588;2023-10-13T05:37:52;26.23;;;12.25;;
68976;SDS011;56029;52.568;13.588;2023-10-13T05:40:17;23.67;;;12.00;;
68976;SDS011;56029;52.568;13.588;2023-10-13T05:42:43;22.58;;;11.93;;
68976;SDS011;56029;52.568;13.588;2023-10-13T05:45:08;25.90;;;12.03;;
68976;SDS011;56029;52.568;13.588;2023-10-13T05:47:34;24.35;;;11.48;;
68976;SDS011;56029;52.568;13.588;2023-10-13T05:50:00;26.67;;;12.73;;
68976;SDS011;56029;52.568;13.588;2023-10-13T05:52:28;23.93;;;12.03;;
68976;SDS011;56029;52.568;13.588;2023-10-13T05:54:53;24.20;;;12.10;;
68976;SDS011;56029;52.568;13.588;2023-10-13T05:57:19;24.77;;;12.00;;
68976;SDS011;56029;52.568;13.588;2023-10-13T05:59:45;23.17;;;12.27;;
68976;SDS011;56029;52.568;13.588;2023-10-13T06:02:10;22.13;;;11.70;;
68976;SDS011;56029;52.568;13.588;2023-10-13T06:04:36;23.08;;;11.57;;
68976;SDS011;56029;52.568;13.588;2023-10-13T06:07:02;23.30;;;12.07;;
68976;SDS011;56029;52.568;13.588;2023-10-13T06:09:27;22.77;;;11.55;;
68976;SDS011;56029;52.568;13.588;2023-10-13T06:11:57;24.50;;;12.03;;
68976;SDS011;56029;52.568;13.588;2023-10-13T06:14:23;22.70;;;12.18;;
68976;SDS011;56029;52.568;13.588;2023-10-13T06:16:49;23.03;;;11.97;;
68976;SDS011;56029;52.568;13.588;2023-10-13T06:19:14;23.75;;;12.32;;
68976;SDS011;56029;52.568;13.588;2023-10-13T06:21:40;23.23;;;11.67;;
68976;SDS011;56029;52.568;13.588;2023-10-13T06:24:09;22.42;;;12.10;;
68976;SDS011;56029;52.568;13.588;2023-10-13T06:26:34;23.52;;;12.43;;
68976;SDS011;56029;52.568;13.588;2023-10-13T06:29:06;20.83;;;11.55;;
68976;SDS011;56029;52.568;13.588;2023-10-13T06:31:32;21.33;;;11.60;;
68976;SDS011;56029;52.568;13.588;2023-10-13T06:33:57;22.55;;;11.15;;
68976;SDS011;56029;52.568;13.588;2023-10-13T06:36:23;19.60;;;10.97;;
68976;SDS011;56029;52.568;13.588;2023-10-13T06:38:48;20.67;;;10.60;;
68976;SDS011;56029;52.568;13.588;2023-10-13T06:41:17;20.77;;;11.00;;
68976;SDS011;56029;52.568;13.588;2023-10-13T06:43:42;21.37;;;11.57;;
68976;SDS011;56029;52.568;13.588;2023-10-13T06:46:11;18.67;;;10.68;;
68976;SDS011;56029;52.568;13.588;2023-10-13T06:48:37;20.70;;;11.00;;
68976;SDS011;56029;52.568;13.588;2023-10-13T06:51:03;22.03;;;10.90;;
68976;SDS011;56029;52.568;13.588;2023-10-13T06:53:28;21.00;;;10.60;;
68976;SDS011;56029;52.568;13.588;2023-10-13T06:55:54;19.75;;;11.02;;
68976;SDS011;56029;52.568;13.588;2023-10-13T06:58:19;21.37;;;11.47;;
68976;SDS011;56029;52.568;13.588;2023-10-13T07:00:51;20.67;;;11.07;;
68976;SDS011;56029;52.568;13.588;2023-10-13T07:03:16;19.30;;;10.77;;
68976;SDS011;56029;52.568;13.588;2023-10-13T07:05:42;22.33;;;11.05;;
68976;SDS011;56029;52.568;13.588;2023-10-13T07:08:08;21.65;;;11.18;;
68976;SDS011;56029;52.568;13.588;2023-10-13T07:10:35;21.25;;;11.02;;
68976;SDS011;56029;52.568;13.588;2023-10-13T07:13:00;19.83;;;10.43;;
68976;SDS011;56029;52.568;13.588;2023-10-13T07:15:26;18.67;;;10.15;;
68976;SDS011;56029;52.568;13.588;2023-10-13T07:17:51;18.63;;;10.60;;
68976;SDS011;56029;52.568;13.588;2023-10-13T07:20:17;17.77;;;9.67;;
68976;SDS011;56029;52.568;13.588;2023-10-13T07:22:43;15.90;;;9.48;;
68976;SDS011;56029;52.568;13.588;2023-10-13T07:25:09;16.83;;;9.93;;
68976;SDS011;56029;52.568;13.588;2023-10-13T07:27:34;17.57;;;10.20;;
68976;SDS011;56029;52.568;13.588;2023-10-13T07:30:00;17.23;;;9.80;;
68976;SDS011;56029;52.568;13.588;2023-10-13T07:32:25;14.93;;;9.25;;
68976;SDS011;56029;52.568;13.588;2023-10-13T07:34:53;15.23;;;9.07;;
68976;SDS011;56029;52.568;13.588;2023-10-13T07:37:19;17.20;;;9.40;;
68976;SDS011;56029;52.568;13.588;2023-10-13T07:39:45;16.57;;;9.10;;
68976;SDS011;56029;52.568;13.588;2023-10-13T07:42:10;15.30;;;8.70;;
68976;SDS011;56029;52.568;13.588;2023-10-13T07:44:39;15.18;;;8.43;;
68976;SDS011;56029;52.568;13.588;2023-10-13T07:47:04;14.07;;;8.25;;
68976;SDS011;56029;52.568;13.588;2023-10-13T07:49:31;15.13;;;8.10;;
68976;SDS011;56029;52.568;13.588;2023-10-13T07:52:05;15.85;;;8.77;;
68976;SDS011;56029;52.568;13.588;2023-10-13T07:54:32;14.27;;;7.88;;
68976;SDS011;56029;52.568;13.588;2023-10-13T07:56:58;13.87;;;8.03;;
68976;SDS011;56029;52.568;13.588;2023-10-13T07:59:23;14.53;;;8.07;;
68976;SDS011;56029;52.568;13.588;2023-10-13T08:01:49;11.43;;;7.73;;
68976;SDS011;56029;52.568;13.588;2023-10-13T08:04:14;12.20;;;8.10;;
68976;SDS011;56029;52.568;13.588;2023-10-13T08:06:40;13.37;;;8.13;;
68976;SDS011;56029;52.568;13.588;2023-10-13T08:09:06;12.77;;;7.27;;
68976;SDS011;56029;52.568;13.588;2023-10-13T08:11:32;12.85;;;7.45;;
68976;SDS011;56029;52.568;13.588;2023-10-13T08:13:59;13.27;;;7.15;;
68976;SDS011;56029;52.568;13.588;2023-10-13T08:16:26;13.93;;;7.43;;
68976;SDS011;56029;52.568;13.588;2023-10-13T08:18:54;12.48;;;7.07;;
68976;SDS011;56029;52.568;13.588;2023-10-13T08:21:20;16.08;;;7.88;;
68976;SDS011;56029;52.568;13.588;2023-10-13T08:23:46;12.00;;;7.30;;
68976;SDS011;56029;52.568;13.588;2023-10-13T08:26:11;13.30;;;7.33;;
68976;SDS011;56029;52.568;13.588;2023-10-13T08:28:37;12.70;;;6.82;;
68976;SDS011;56029;52.568;13.588;2023-10-13T08:31:06;16.23;;;7.37;;
68976;SDS011;56029;52.568;13.588;2023-10-13T08:33:31;12.40;;;6.97;;
68976;SDS011;56029;52.568;13.588;2023-10-13T08:35:57;12.70;;;7.40;;
68976;SDS011;56029;52.568;13.588;2023-10-13T08:38:22;12.10;;;7.10;;
68976;SDS011;56029;52.568;13.588;2023-10-13T08:40:48;11.90;;;7.13;;
68976;SDS011;56029;52.568;13.588;2023-10-13T08:43:16;11.47;;;6.40;;
68976;SDS011;56029;52.568;13.588;2023-10-13T08:45:42;11.65;;;6.72;;
68976;SDS011;56029;52.568;13.588;2023-10-13T08:48:13;14.43;;;7.22;;
68976;SDS011;56029;52.568;13.588;2023-10-13T08:50:49;11.27;;;6.57;;
68976;SDS011;56029;52.568;13.588;2023-10-13T08:53:19;13.15;;;6.75;;
68976;SDS011;56029;52.568;13.588;2023-10-13T08:55:49;13.45;;;7.13;;
68976;SDS011;56029;52.568;13.588;2023-10-13T08:58:15;13.75;;;6.70;;
68976;SDS011;56029;52.568;13.588;2023-10-13T09:00:41;12.50;;;7.10;;
68976;SDS011;56029;52.568;13.588;2023-10-13T09:03:14;11.75;;;6.30;;
68976;SDS011;56029;52.568;13.588;2023-10-13T09:05:42;12.03;;;6.20;;
68976;SDS011;56029;52.568;13.588;2023-10-13T09:08:09;11.82;;;6.32;;
68976;SDS011;56029;52.568;13.588;2023-10-13T09:10:34;11.47;;;6.30;;
68976;SDS011;56029;52.568;13.588;2023-10-13T09:13:00;10.38;;;6.57;;
68976;SDS011;56029;52.568;13.588;2023-10-13T09:15:28;10.00;;;6.20;;
68976;SDS011;56029;52.568;13.588;2023-10-13T09:17:59;10.60;;;6.00;;
68976;SDS011;56029;52.568;13.588;2023-10-13T09:23:09;10.80;;;6.30;;
68976;SDS011;56029;52.568;13.588;2023-10-13T09:25:37;11.80;;;5.85;;
68976;SDS011;56029;52.568;13.588;2023-10-13T09:28:12;11.13;;;6.15;;
68976;SDS011;56029;52.568;13.588;2023-10-13T09:30:44;9.98;;;5.78;;
68976;SDS011;56029;52.568;13.588;2023-10-13T09:33:10;12.70;;;6.20;;
68976;SDS011;56029;52.568;13.588;2023-10-13T09:35:38;10.10;;;6.15;;
68976;SDS011;56029;52.568;13.588;2023-10-13T09:38:03;10.88;;;6.10;;
68976;SDS011;56029;52.568;13.588;2023-10-13T09:40:30;11.43;;;6.40;;
68976;SDS011;56029;52.568;13.588;2023-10-13T09:42:55;11.73;;;6.18;;
68976;SDS011;56029;52.568;13.588;2023-10-13T09:45:28;11.77;;;6.65;;
68976;SDS011;56029;52.568;13.588;2023-10-13T09:47:56;13.20;;;6.35;;
68976;SDS011;56029;52.568;13.588;2023-10-13T09:50:27;11.97;;;5.90;;
68976;SDS011;56029;52.568;13.588;2023-10-13T09:52:54;12.13;;;6.25;;
68976;SDS011;56029;52.568;13.588;2023-10-13T09:55:23;10.95;;;5.60;;
68976;SDS011;56029;52.568;13.588;2023-10-13T09:57:54;11.35;;;5.90;;
68976;SDS011;56029;52.568;13.588;2023-10-13T10:00:31;11.48;;;6.13;;
68976;SDS011;56029;52.568;13.588;2023-10-13T10:02:57;10.43;;;5.87;;
68976;SDS011;56029;52.568;13.588;2023-10-13T10:05:24;11.05;;;5.93;;
68976;SDS011;56029;52.568;13.588;2023-10-13T10:07:54;10.77;;;5.80;;
68976;SDS011;56029;52.568;13.588;2023-10-13T10:10:21;10.68;;;6.30;;
68976;SDS011;56029;52.568;13.588;2023-10-13T10:15:36;11.37;;;6.10;;
68976;SDS011;56029;52.568;13.588;2023-10-13T10:18:20;12.43;;;5.93;;
68976;SDS011;56029;52.568;13.588;2023-10-13T10:20:47;11.98;;;6.03;;
68976;SDS011;56029;52.568;13.588;2023-10-13T10:23:27;11.45;;;5.95;;
68976;SDS011;56029;52.568;13.588;2023-10-13T10:25:53;12.70;;;6.50;;
68976;SDS011;56029;52.568;13.588;2023-10-13T10:28:19;12.17;;;6.60;;
68976;SDS011;56029;52.568;13.588;2023-10-13T10:30:45;11.02;;;6.22;;
68976;SDS011;56029;52.568;13.588;2023-10-13T10:33:11;11.85;;;6.22;;
68976;SDS011;56029;52.568;13.588;2023-10-13T10:38:11;10.68;;;6.60;;
68976;SDS011;56029;52.568;13.588;2023-10-13T10:40:50;11.70;;;6.40;;
68976;SDS011;56029;52.568;13.588;2023-10-13T10:43:21;11.15;;;6.38;;
68976;SDS011;56029;52.568;13.588;2023-10-13T10:45:47;12.20;;;6.00;;
68976;SDS011;56029;52.568;13.588;2023-10-13T10:48:13;11.30;;;6.18;;
68976;SDS011;56029;52.568;13.588;2023-10-13T10:50:38;12.00;;;6.53;;
68976;SDS011;56029;52.568;13.588;2023-10-13T10:53:04;11.47;;;6.77;;
68976;SDS011;56029;52.568;13.588;2023-10-13T10:55:30;13.32;;;6.70;;
68976;SDS011;56029;52.568;13.588;2023-10-13T10:57:59;11.57;;;6.30;;
68976;SDS011;56029;52.568;13.588;2023-10-13T11:00:25;13.40;;;6.60;;
68976;SDS011;56029;52.568;13.588;2023-10-13T11:03:00;11.33;;;6.30;;
68976;SDS011;56029;52.568;13.588;2023-10-13T11:05:25;10.88;;;6.50;;
68976;SDS011;56029;52.568;13.588;2023-10-13T11:07:51;12.10;;;6.83;;
68976;SDS011;56029;52.568;13.588;2023-10-13T11:10:17;12.82;;;6.60;;
68976;SDS011;56029;52.568;13.588;2023-10-13T11:12:53;13.03;;;6.80;;
68976;SDS011;56029;52.568;13.588;2023-10-13T11:15:19;10.82;;;6.35;;
68976;SDS011;56029;52.568;13.588;2023-10-13T11:17:47;12.43;;;6.50;;
68976;SDS011;56029;52.568;13.588;2023-10-13T11:20:15;11.10;;;6.38;;
68976;SDS011;56029;52.568;13.588;2023-10-13T11:22:45;12.88;;;6.90;;
68976;SDS011;56029;52.568;13.588;2023-10-13T11:25:19;11.07;;;6.90;;
68976;SDS011;56029;52.568;13.588;2023-10-13T11:27:47;11.30;;;6.60;;
68976;SDS011;56029;52.568;13.588;2023-10-13T11:30:12;12.38;;;6.50;;
68976;SDS011;56029;52.568;13.588;2023-10-13T11:32:38;11.57;;;6.97;;
68976;SDS011;56029;52.568;13.588;2023-10-13T11:35:04;11.82;;;6.75;;
68976;SDS011;56029;52.568;13.588;2023-10-13T11:37:29;11.83;;;6.97;;
68976;SDS011;56029;52.568;13.588;2023-10-13T11:39:55;12.98;;;6.80;;
68976;SDS011;56029;52.568;13.588;2023-10-13T11:42:21;11.40;;;6.47;;
68976;SDS011;56029;52.568;13.588;2023-10-13T11:44:46;11.60;;;6.30;;
68976;SDS011;56029;52.568;13.588;2023-10-13T11:47:12;12.37;;;7.20;;
68976;SDS011;56029;52.568;13.588;2023-10-13T11:49:37;12.70;;;6.60;;
68976;SDS011;56029;52.568;13.588;2023-10-13T11:52:03;12.50;;;6.83;;
68976;SDS011;56029;52.568;13.588;2023-10-13T11:54:29;13.33;;;6.50;;
68976;SDS011;56029;52.568;13.588;2023-10-13T11:56:54;12.50;;;6.50;;
68976;SDS011;56029;52.568;13.588;2023-10-13T11:59:20;11.60;;;6.18;;
68976;SDS011;56029;52.568;13.588;2023-10-13T12:01:48;12.10;;;6.33;;
68976;SDS011;56029;52.568;13.588;2023-10-13T12:04:15;12.32;;;6.45;;
68976;SDS011;56029;52.568;13.588;2023-10-13T12:06:40;12.57;;;6.43;;
68976;SDS011;56029;52.568;13.588;2023-10-13T12:11:31;10.77;;;6.53;;
68976;SDS011;56029;52.568;13.588;2023-10-13T12:13:57;13.10;;;6.30;;
68976;SDS011;56029;52.568;13.588;2023-10-13T12:16:22;12.98;;;6.40;;
68976;SDS011;56029;52.568;13.588;2023-10-13T12:18:48;10.88;;;6.18;;
68976;SDS011;56029;52.568;13.588;2023-10-13T12:21:14;11.30;;;6.13;;
68976;SDS011;56029;52.568;13.588;2023-10-13T12:23:39;12.50;;;6.30;;
68976;SDS011;56029;52.568;13.588;2023-10-13T12:26:05;11.75;;;6.47;;
68976;SDS011;56029;52.568;13.588;2023-10-13T12:28:30;11.47;;;6.57;;
68976;SDS011;56029;52.568;13.588;2023-10-13T12:30:56;11.90;;;6.07;;
68976;SDS011;56029;52.568;13.588;2023-10-13T12:33:28;12.20;;;6.18;;
68976;SDS011;56029;52.568;13.588;2023-10-13T12:35:57;12.17;;;6.30;;
68976;SDS011;56029;52.568;13.588;2023-10-13T12:38:23;11.85;;;6.20;;
68976;SDS011;56029;52.568;13.588;2023-10-13T12:40:48;11.73;;;6.20;;
68976;SDS011;56029;52.568;13.588;2023-10-13T12:43:14;11.57;;;6.30;;
68976;SDS011;56029;52.568;13.588;2023-10-13T12:45:40;12.93;;;6.50;;
68976;SDS011;56029;52.568;13.588;2023-10-13T12:48:06;11.55;;;6.25;;
68976;SDS011;56029;52.568;13.588;2023-10-13T12:50:33;11.97;;;6.07;;
68976;SDS011;56029;52.568;13.588;2023-10-13T12:52:58;11.98;;;6.20;;
68976;SDS011;56029;52.568;13.588;2023-10-13T12:55:24;10.27;;;6.30;;
68976;SDS011;56029;52.568;13.588;2023-10-13T12:57:49;15.03;;;6.27;;
68976;SDS011;56029;52.568;13.588;2023-10-13T13:00:15;11.53;;;5.90;;
68976;SDS011;56029;52.568;13.588;2023-10-13T13:02:41;11.07;;;5.97;;
68976;SDS011;56029;52.568;13.588;2023-10-13T13:05:06;12.13;;;6.00;;
68976;SDS011;56029;52.568;13.588;2023-10-13T13:07:32;10.83;;;5.93;;
68976;SDS011;56029;52.568;13.588;2023-10-13T13:09:58;12.70;;;6.05;;
68976;SDS011;56029;52.568;13.588;2023-10-13T13:12:23;11.67;;;5.77;;
68976;SDS011;56029;52.568;13.588;2023-10-13T13:14:49;13.30;;;5.78;;
68976;SDS011;56029;52.568;13.588;2023-10-13T13:17:15;13.48;;;6.18;;
68976;SDS011;56029;52.568;13.588;2023-10-13T13:19:40;10.63;;;5.67;;
68976;SDS011;56029;52.568;13.588;2023-10-13T13:22:06;11.80;;;5.80;;
68976;SDS011;56029;52.568;13.588;2023-10-13T13:24:32;10.35;;;5.72;;
68976;SDS011;56029;52.568;13.588;2023-10-13T13:26:58;11.50;;;5.72;;
68976;SDS011;56029;52.568;13.588;2023-10-13T13:29:23;13.33;;;5.60;;
68976;SDS011;56029;52.568;13.588;2023-10-13T13:31:49;12.57;;;5.70;;
68976;SDS011;56029;52.568;13.588;2023-10-13T13:34:14;13.20;;;5.90;;
68976;SDS011;56029;52.568;13.588;2023-10-13T13:36:40;11.48;;;5.55;;
68976;SDS011;56029;52.568;13.588;2023-10-13T13:39:05;11.30;;;5.80;;
68976;SDS011;56029;52.568;13.588;2023-10-13T13:41:31;12.35;;;5.88;;
68976;SDS011;56029;52.568;13.588;2023-10-13T13:43:56;12.47;;;5.50;;
68976;SDS011;56029;52.568;13.588;2023-10-13T13:46:23;10.17;;;5.80;;
68976;SDS011;56029;52.568;13.588;2023-10-13T13:48:50;12.30;;;5.60;;
68976;SDS011;56029;52.568;13.588;2023-10-13T13:51:16;12.35;;;5.70;;
68976;SDS011;56029;52.568;13.588;2023-10-13T13:53:42;11.15;;;5.45;;
68976;SDS011;56029;52.568;13.588;2023-10-13T13:56:08;11.27;;;5.72;;
68976;SDS011;56029;52.568;13.588;2023-10-13T13:58:33;12.90;;;5.97;;
68976;SDS011;56029;52.568;13.588;2023-10-13T14:01:00;11.93;;;5.83;;
68976;SDS011;56029;52.568;13.588;2023-10-13T14:03:26;13.90;;;5.80;;
68976;SDS011;56029;52.568;13.588;2023-10-13T14:05:52;11.10;;;5.78;;
68976;SDS011;56029;52.568;13.588;2023-10-13T14:08:17;10.33;;;5.57;;
68976;SDS011;56029;52.568;13.588;2023-10-13T14:10:43;17.17;;;6.17;;
68976;SDS011;56029;52.568;13.588;2023-10-13T14:13:08;13.60;;;5.80;;
68976;SDS011;56029;52.568;13.588;2023-10-13T14:15:34;13.37;;;6.10;;
68976;SDS011;56029;52.568;13.588;2023-10-13T14:17:59;12.77;;;5.33;;
68976;SDS011;56029;52.568;13.588;2023-10-13T14:20:25;13.00;;;5.60;;
68976;SDS011;56029;52.568;13.588;2023-10-13T14:22:50;13.10;;;5.80;;
68976;SDS011;56029;52.568;13.588;2023-10-13T14:25:16;13.20;;;6.20;;
68976;SDS011;56029;52.568;13.588;2023-10-13T14:27:41;11.57;;;5.57;;